sensor_id;sensor_type;location;lat;lon;timestamp;P1;durP1;ratioP1;P2;durP2;ratioP2
16766;SDS011;8501;49.926;8.404;2024-02-15T00:01:10;19.57;;;12.10;;
16766;SDS011;8501;49.926;8.404;2024-02-15T00:03:36;19.90;;;11.53;;
16766;SDS011;8501;49.926;8.404;2024-02-15T00:06:01;16.73;;;10.93;;
16766;SDS011;8501;49.926;8.404;2024-02-15T00:08:28;17.03;;;11.17;;
16766;SDS011;8501;49.926;8.404;2024-02-15T00:10:54;24.17;;;11.60;;
16766;SDS011;8501;49.926;8.404;2024-02-15T00:13:20;21.37;;;11.43;;
16766;SDS011;8501;49.926;8.404;2024-02-15T00:15:47;19.00;;;11.50;;
16766;SDS011;8501;49.926;8.404;2024-02-15T00:18:14;17.70;;;12.07;;
16766;SDS011;8501;49.926;8.404;2024-02-15T00:20:39;19.93;;;12.60;;
16766;SDS011;8501;49.926;8.404;2024-02-15T00:23:05;21.43;;;12.13;;
16766;SDS011;8501;49.926;8.404;2024-02-15T00:25:31;22.87;;;13.03;;
16766;SDS011;8501;49.926;8.404;2024-02-15T00:27:57;22.13;;;12.50;;
16766;SDS011;8501;49.926;8.404;2024-02-15T00:30:25;20.57;;;12.93;;
16766;SDS011;8501;49.926;8.404;2024-02-15T00:32:52;19.37;;;13.17;;
16766;SDS011;8501;49.926;8.404;2024-02-15T00:35:17;20.33;;;13.23;;
16766;SDS011;8501;49.926;8.404;2024-02-15T00:37:43;21.37;;;13.70;;
16766;SDS011;8501;49.926;8.404;2024-02-15T00:40:10;24.53;;;14.83;;
16766;SDS011;8501;49.926;8.404;2024-02-15T00:42:36;22.50;;;14.00;;
16766;SDS011;8501;49.926;8.404;2024-02-15T00:45:02;22.57;;;14.23;;
16766;SDS011;8501;49.926;8.404;2024-02-15T00:47:29;22.77;;;14.30;;
16766;SDS011;8501;49.926;8.404;2024-02-15T00:49:54;22.43;;;14.17;;
16766;SDS011;8501;49.926;8.404;2024-02-15T00:52:20;24.60;;;14.87;;
16766;SDS011;8501;49.926;8.404;2024-02-15T00:54:45;28.57;;;14.83;;
16766;SDS011;8501;49.926;8.404;2024-02-15T00:57:12;22.87;;;15.10;;
16766;SDS011;8501;49.926;8.404;2024-02-15T00:59:37;24.27;;;14.77;;
16766;SDS011;8501;49.926;8.404;2024-02-15T01:02:03;26.07;;;15.33;;
16766;SDS011;8501;49.926;8.404;2024-02-15T01:04:30;26.50;;;16.10;;
16766;SDS011;8501;49.926;8.404;2024-02-15T01:06:55;24.30;;;14.87;;
16766;SDS011;8501;49.926;8.404;2024-02-15T01:09:21;22.27;;;14.73;;
16766;SDS011;8501;49.926;8.404;2024-02-15T01:11:47;28.07;;;15.50;;
16766;SDS011;8501;49.926;8.404;2024-02-15T01:14:13;25.77;;;14.73;;
16766;SDS011;8501;49.926;8.404;2024-02-15T01:16:40;24.77;;;15.43;;
16766;SDS011;8501;49.926;8.404;2024-02-15T01:19:06;23.90;;;15.60;;
16766;SDS011;8501;49.926;8.404;2024-02-15T01:21:32;23.03;;;14.80;;
16766;SDS011;8501;49.926;8.404;2024-02-15T01:23:58;27.30;;;16.33;;
16766;SDS011;8501;49.926;8.404;2024-02-15T01:26:25;23.23;;;14.97;;
16766;SDS011;8501;49.926;8.404;2024-02-15T01:28:51;25.17;;;15.57;;
16766;SDS011;8501;49.926;8.404;2024-02-15T01:31:17;24.10;;;15.23;;
16766;SDS011;8501;49.926;8.404;2024-02-15T01:33:43;26.97;;;15.53;;
16766;SDS011;8501;49.926;8.404;2024-02-15T01:36:13;22.50;;;15.07;;
16766;SDS011;8501;49.926;8.404;2024-02-15T01:38:43;20.50;;;13.70;;
16766;SDS011;8501;49.926;8.404;2024-02-15T01:41:09;23.93;;;14.37;;
16766;SDS011;8501;49.926;8.404;2024-02-15T01:43:35;24.67;;;13.93;;
16766;SDS011;8501;49.926;8.404;2024-02-15T01:46:01;22.83;;;14.00;;
16766;SDS011;8501;49.926;8.404;2024-02-15T01:48:32;20.67;;;13.33;;
16766;SDS011;8501;49.926;8.404;2024-02-15T01:50:58;22.13;;;13.47;;
16766;SDS011;8501;49.926;8.404;2024-02-15T01:53:24;23.27;;;13.10;;
16766;SDS011;8501;49.926;8.404;2024-02-15T01:55:52;22.27;;;13.70;;
16766;SDS011;8501;49.926;8.404;2024-02-15T01:58:19;20.57;;;12.53;;
16766;SDS011;8501;49.926;8.404;2024-02-15T02:00:45;18.37;;;12.87;;
16766;SDS011;8501;49.926;8.404;2024-02-15T02:03:11;21.30;;;12.87;;
16766;SDS011;8501;49.926;8.404;2024-02-15T02:05:39;21.63;;;12.60;;
16766;SDS011;8501;49.926;8.404;2024-02-15T02:08:06;20.60;;;12.80;;
16766;SDS011;8501;49.926;8.404;2024-02-15T02:10:34;19.87;;;13.10;;
16766;SDS011;8501;49.926;8.404;2024-02-15T02:13:04;18.73;;;11.87;;
16766;SDS011;8501;49.926;8.404;2024-02-15T02:15:33;19.43;;;12.43;;
16766;SDS011;8501;49.926;8.404;2024-02-15T02:18:00;19.37;;;12.10;;
16766;SDS011;8501;49.926;8.404;2024-02-15T02:20:26;21.33;;;12.90;;
16766;SDS011;8501;49.926;8.404;2024-02-15T02:22:53;20.47;;;12.27;;
16766;SDS011;8501;49.926;8.404;2024-02-15T02:25:21;18.67;;;11.27;;
16766;SDS011;8501;49.926;8.404;2024-02-15T02:27:51;16.40;;;11.27;;
16766;SDS011;8501;49.926;8.404;2024-02-15T02:30:17;19.33;;;11.43;;
16766;SDS011;8501;49.926;8.404;2024-02-15T02:32:44;17.80;;;11.30;;
16766;SDS011;8501;49.926;8.404;2024-02-15T02:35:11;19.33;;;11.90;;
16766;SDS011;8501;49.926;8.404;2024-02-15T02:37:37;18.67;;;11.93;;
16766;SDS011;8501;49.926;8.404;2024-02-15T02:40:04;20.37;;;12.67;;
16766;SDS011;8501;49.926;8.404;2024-02-15T02:42:33;17.97;;;11.53;;
16766;SDS011;8501;49.926;8.404;2024-02-15T02:45:12;17.60;;;11.77;;
16766;SDS011;8501;49.926;8.404;2024-02-15T02:47:38;18.57;;;11.80;;
16766;SDS011;8501;49.926;8.404;2024-02-15T02:50:04;17.77;;;11.97;;
16766;SDS011;8501;49.926;8.404;2024-02-15T02:52:30;21.87;;;13.90;;
16766;SDS011;8501;49.926;8.404;2024-02-15T02:54:55;20.40;;;11.90;;
16766;SDS011;8501;49.926;8.404;2024-02-15T02:57:21;16.97;;;11.60;;
16766;SDS011;8501;49.926;8.404;2024-02-15T02:59:46;18.57;;;11.93;;
16766;SDS011;8501;49.926;8.404;2024-02-15T03:02:12;20.87;;;12.17;;
16766;SDS011;8501;49.926;8.404;2024-02-15T03:04:38;16.43;;;11.13;;
16766;SDS011;8501;49.926;8.404;2024-02-15T03:07:05;18.83;;;12.20;;
16766;SDS011;8501;49.926;8.404;2024-02-15T03:09:30;18.60;;;12.03;;
16766;SDS011;8501;49.926;8.404;2024-02-15T03:11:56;18.67;;;11.87;;
16766;SDS011;8501;49.926;8.404;2024-02-15T03:14:22;20.73;;;12.43;;
16766;SDS011;8501;49.926;8.404;2024-02-15T03:16:47;18.43;;;12.17;;
16766;SDS011;8501;49.926;8.404;2024-02-15T03:19:13;17.07;;;11.87;;
16766;SDS011;8501;49.926;8.404;2024-02-15T03:21:39;18.00;;;12.47;;
16766;SDS011;8501;49.926;8.404;2024-02-15T03:24:06;18.83;;;12.37;;
16766;SDS011;8501;49.926;8.404;2024-02-15T03:26:32;15.77;;;11.37;;
16766;SDS011;8501;49.926;8.404;2024-02-15T03:29:02;18.70;;;12.03;;
16766;SDS011;8501;49.926;8.404;2024-02-15T03:31:28;19.47;;;11.83;;
16766;SDS011;8501;49.926;8.404;2024-02-15T03:33:55;18.63;;;12.40;;
16766;SDS011;8501;49.926;8.404;2024-02-15T03:36:24;18.10;;;12.27;;
16766;SDS011;8501;49.926;8.404;2024-02-15T03:38:49;16.50;;;11.23;;
16766;SDS011;8501;49.926;8.404;2024-02-15T03:41:15;16.90;;;11.97;;
16766;SDS011;8501;49.926;8.404;2024-02-15T03:43:40;18.97;;;11.77;;
16766;SDS011;8501;49.926;8.404;2024-02-15T03:46:06;18.30;;;11.73;;
16766;SDS011;8501;49.926;8.404;2024-02-15T03:48:36;18.20;;;11.43;;
16766;SDS011;8501;49.926;8.404;2024-02-15T03:51:02;16.83;;;11.40;;
16766;SDS011;8501;49.926;8.404;2024-02-15T03:53:28;15.60;;;11.00;;
16766;SDS011;8501;49.926;8.404;2024-02-15T03:55:56;15.77;;;11.20;;
16766;SDS011;8501;49.926;8.404;2024-02-15T03:58:22;16.63;;;11.30;;
16766;SDS011;8501;49.926;8.404;2024-02-15T04:00:48;18.23;;;11.47;;
16766;SDS011;8501;49.926;8.404;2024-02-15T04:03:13;17.43;;;11.43;;
16766;SDS011;8501;49.926;8.404;2024-02-15T04:05:39;16.60;;;10.77;;
16766;SDS011;8501;49.926;8.404;2024-02-15T04:08:05;17.97;;;10.73;;
16766;SDS011;8501;49.926;8.404;2024-02-15T04:10:32;16.97;;;11.10;;
16766;SDS011;8501;49.926;8.404;2024-02-15T04:12:57;16.30;;;11.20;;
16766;SDS011;8501;49.926;8.404;2024-02-15T04:15:23;20.17;;;11.97;;
16766;SDS011;8501;49.926;8.404;2024-02-15T04:17:49;16.97;;;10.90;;
16766;SDS011;8501;49.926;8.404;2024-02-15T04:20:20;18.67;;;11.63;;
16766;SDS011;8501;49.926;8.404;2024-02-15T04:22:47;15.07;;;10.83;;
16766;SDS011;8501;49.926;8.404;2024-02-15T04:25:15;16.47;;;10.83;;
16766;SDS011;8501;49.926;8.404;2024-02-15T04:27:43;16.67;;;10.53;;
16766;SDS011;8501;49.926;8.404;2024-02-15T04:30:14;15.70;;;11.10;;
16766;SDS011;8501;49.926;8.404;2024-02-15T04:32:40;14.33;;;10.03;;
16766;SDS011;8501;49.926;8.404;2024-02-15T04:35:06;15.70;;;10.23;;
16766;SDS011;8501;49.926;8.404;2024-02-15T04:37:32;14.00;;;9.97;;
16766;SDS011;8501;49.926;8.404;2024-02-15T04:40:00;15.53;;;10.57;;
16766;SDS011;8501;49.926;8.404;2024-02-15T04:42:34;15.67;;;9.70;;
16766;SDS011;8501;49.926;8.404;2024-02-15T04:45:07;16.97;;;10.67;;
16766;SDS011;8501;49.926;8.404;2024-02-15T04:47:34;23.37;;;13.53;;
16766;SDS011;8501;49.926;8.404;2024-02-15T04:50:00;20.87;;;12.40;;
16766;SDS011;8501;49.926;8.404;2024-02-15T04:52:27;19.43;;;11.67;;
16766;SDS011;8501;49.926;8.404;2024-02-15T04:54:53;16.17;;;11.37;;
16766;SDS011;8501;49.926;8.404;2024-02-15T04:57:24;17.50;;;10.60;;
16766;SDS011;8501;49.926;8.404;2024-02-15T04:59:53;14.23;;;9.97;;
16766;SDS011;8501;49.926;8.404;2024-02-15T05:02:19;16.47;;;10.03;;
16766;SDS011;8501;49.926;8.404;2024-02-15T05:04:45;16.00;;;10.63;;
16766;SDS011;8501;49.926;8.404;2024-02-15T05:07:10;15.70;;;9.57;;
16766;SDS011;8501;49.926;8.404;2024-02-15T05:09:36;16.77;;;10.87;;
16766;SDS011;8501;49.926;8.404;2024-02-15T05:12:02;15.87;;;10.40;;
16766;SDS011;8501;49.926;8.404;2024-02-15T05:14:29;16.27;;;10.20;;
16766;SDS011;8501;49.926;8.404;2024-02-15T05:16:54;16.83;;;10.80;;
16766;SDS011;8501;49.926;8.404;2024-02-15T05:19:20;18.27;;;10.80;;
16766;SDS011;8501;49.926;8.404;2024-02-15T05:21:46;18.97;;;10.90;;
16766;SDS011;8501;49.926;8.404;2024-02-15T05:24:13;18.83;;;11.30;;
16766;SDS011;8501;49.926;8.404;2024-02-15T05:26:40;15.50;;;10.57;;
16766;SDS011;8501;49.926;8.404;2024-02-15T05:29:11;14.37;;;10.60;;
16766;SDS011;8501;49.926;8.404;2024-02-15T05:31:38;19.90;;;10.80;;
16766;SDS011;8501;49.926;8.404;2024-02-15T05:34:05;17.70;;;10.77;;
16766;SDS011;8501;49.926;8.404;2024-02-15T05:36:33;15.73;;;10.53;;
16766;SDS011;8501;49.926;8.404;2024-02-15T05:38:59;17.23;;;10.57;;
16766;SDS011;8501;49.926;8.404;2024-02-15T05:41:25;15.83;;;10.33;;
16766;SDS011;8501;49.926;8.404;2024-02-15T05:43:50;16.17;;;10.53;;
16766;SDS011;8501;49.926;8.404;2024-02-15T05:46:19;16.97;;;10.70;;
16766;SDS011;8501;49.926;8.404;2024-02-15T05:48:48;18.47;;;10.80;;
16766;SDS011;8501;49.926;8.404;2024-02-15T05:51:13;16.37;;;10.97;;
16766;SDS011;8501;49.926;8.404;2024-02-15T05:53:40;16.53;;;11.37;;
16766;SDS011;8501;49.926;8.404;2024-02-15T05:56:06;17.23;;;10.93;;
16766;SDS011;8501;49.926;8.404;2024-02-15T05:58:33;18.57;;;11.50;;
16766;SDS011;8501;49.926;8.404;2024-02-15T06:00:59;21.03;;;12.30;;
16766;SDS011;8501;49.926;8.404;2024-02-15T06:03:30;16.77;;;11.37;;
16766;SDS011;8501;49.926;8.404;2024-02-15T06:05:58;18.10;;;11.10;;
16766;SDS011;8501;49.926;8.404;2024-02-15T06:08:28;18.03;;;11.80;;
16766;SDS011;8501;49.926;8.404;2024-02-15T06:10:57;18.63;;;11.60;;
16766;SDS011;8501;49.926;8.404;2024-02-15T06:13:23;18.80;;;12.37;;
16766;SDS011;8501;49.926;8.404;2024-02-15T06:15:49;19.77;;;12.87;;
16766;SDS011;8501;49.926;8.404;2024-02-15T06:18:22;18.77;;;11.43;;
16766;SDS011;8501;49.926;8.404;2024-02-15T06:20:53;17.87;;;12.10;;
16766;SDS011;8501;49.926;8.404;2024-02-15T06:23:19;17.77;;;12.60;;
16766;SDS011;8501;49.926;8.404;2024-02-15T06:25:48;21.37;;;12.87;;
16766;SDS011;8501;49.926;8.404;2024-02-15T06:28:18;18.93;;;12.43;;
16766;SDS011;8501;49.926;8.404;2024-02-15T06:31:10;18.20;;;12.57;;
16766;SDS011;8501;49.926;8.404;2024-02-15T06:33:55;17.93;;;11.93;;
16766;SDS011;8501;49.926;8.404;2024-02-15T06:36:40;18.47;;;11.83;;
16766;SDS011;8501;49.926;8.404;2024-02-15T06:39:29;19.30;;;12.73;;
16766;SDS011;8501;49.926;8.404;2024-02-15T06:42:05;19.10;;;11.97;;
16766;SDS011;8501;49.926;8.404;2024-02-15T06:44:40;19.60;;;12.73;;
16766;SDS011;8501;49.926;8.404;2024-02-15T06:47:06;27.80;;;16.03;;
16766;SDS011;8501;49.926;8.404;2024-02-15T06:49:34;23.03;;;14.40;;
16766;SDS011;8501;49.926;8.404;2024-02-15T06:52:00;20.90;;;13.57;;
16766;SDS011;8501;49.926;8.404;2024-02-15T06:54:27;22.03;;;13.13;;
16766;SDS011;8501;49.926;8.404;2024-02-15T06:56:53;21.33;;;13.50;;
16766;SDS011;8501;49.926;8.404;2024-02-15T06:59:19;27.33;;;14.10;;
16766;SDS011;8501;49.926;8.404;2024-02-15T07:01:47;28.30;;;14.83;;
16766;SDS011;8501;49.926;8.404;2024-02-15T07:04:17;26.13;;;14.20;;
16766;SDS011;8501;49.926;8.404;2024-02-15T07:06:43;25.37;;;13.90;;
16766;SDS011;8501;49.926;8.404;2024-02-15T07:09:12;27.00;;;14.77;;
16766;SDS011;8501;49.926;8.404;2024-02-15T07:11:40;26.70;;;13.53;;
16766;SDS011;8501;49.926;8.404;2024-02-15T07:14:06;24.43;;;14.20;;
16766;SDS011;8501;49.926;8.404;2024-02-15T07:16:32;24.40;;;13.50;;
16766;SDS011;8501;49.926;8.404;2024-02-15T07:19:00;25.00;;;13.13;;
16766;SDS011;8501;49.926;8.404;2024-02-15T07:21:26;21.77;;;12.70;;
16766;SDS011;8501;49.926;8.404;2024-02-15T07:23:53;21.13;;;12.97;;
16766;SDS011;8501;49.926;8.404;2024-02-15T07:26:20;18.83;;;11.93;;
16766;SDS011;8501;49.926;8.404;2024-02-15T07:28:54;19.53;;;11.67;;
16766;SDS011;8501;49.926;8.404;2024-02-15T07:31:22;17.57;;;10.33;;
16766;SDS011;8501;49.926;8.404;2024-02-15T07:33:48;19.63;;;11.50;;
16766;SDS011;8501;49.926;8.404;2024-02-15T07:36:19;16.07;;;10.37;;
16766;SDS011;8501;49.926;8.404;2024-02-15T07:38:46;18.60;;;10.67;;
16766;SDS011;8501;49.926;8.404;2024-02-15T07:41:13;16.40;;;10.37;;
16766;SDS011;8501;49.926;8.404;2024-02-15T07:43:39;17.57;;;9.43;;
16766;SDS011;8501;49.926;8.404;2024-02-15T07:46:05;16.43;;;10.37;;
16766;SDS011;8501;49.926;8.404;2024-02-15T07:48:31;14.90;;;9.50;;
16766;SDS011;8501;49.926;8.404;2024-02-15T07:50:57;14.77;;;9.03;;
16766;SDS011;8501;49.926;8.404;2024-02-15T07:53:23;14.23;;;9.20;;
16766;SDS011;8501;49.926;8.404;2024-02-15T07:55:50;10.70;;;8.57;;
16766;SDS011;8501;49.926;8.404;2024-02-15T07:58:15;13.80;;;9.33;;
16766;SDS011;8501;49.926;8.404;2024-02-15T08:00:43;15.87;;;9.60;;
16766;SDS011;8501;49.926;8.404;2024-02-15T08:03:09;16.10;;;9.27;;
16766;SDS011;8501;49.926;8.404;2024-02-15T08:05:35;17.73;;;9.63;;
16766;SDS011;8501;49.926;8.404;2024-02-15T08:08:02;15.77;;;9.43;;
16766;SDS011;8501;49.926;8.404;2024-02-15T08:10:29;15.33;;;9.43;;
16766;SDS011;8501;49.926;8.404;2024-02-15T08:12:56;12.37;;;8.60;;
16766;SDS011;8501;49.926;8.404;2024-02-15T08:15:23;17.83;;;9.83;;
16766;SDS011;8501;49.926;8.404;2024-02-15T08:17:49;14.83;;;9.40;;
16766;SDS011;8501;49.926;8.404;2024-02-15T08:20:15;17.10;;;9.90;;
16766;SDS011;8501;49.926;8.404;2024-02-15T08:22:46;17.77;;;10.73;;
16766;SDS011;8501;49.926;8.404;2024-02-15T08:25:12;15.50;;;10.07;;
16766;SDS011;8501;49.926;8.404;2024-02-15T08:27:43;14.10;;;10.13;;
16766;SDS011;8501;49.926;8.404;2024-02-15T08:30:14;16.73;;;10.40;;
16766;SDS011;8501;49.926;8.404;2024-02-15T08:32:41;18.53;;;10.40;;
16766;SDS011;8501;49.926;8.404;2024-02-15T08:35:08;14.20;;;10.33;;
16766;SDS011;8501;49.926;8.404;2024-02-15T08:37:35;17.90;;;10.90;;
16766;SDS011;8501;49.926;8.404;2024-02-15T08:40:03;17.80;;;11.40;;
16766;SDS011;8501;49.926;8.404;2024-02-15T08:42:29;18.07;;;11.10;;
16766;SDS011;8501;49.926;8.404;2024-02-15T08:44:56;15.17;;;10.43;;
16766;SDS011;8501;49.926;8.404;2024-02-15T08:47:24;18.20;;;11.93;;
16766;SDS011;8501;49.926;8.404;2024-02-15T08:49:49;20.70;;;11.30;;
16766;SDS011;8501;49.926;8.404;2024-02-15T08:52:15;18.70;;;11.53;;
16766;SDS011;8501;49.926;8.404;2024-02-15T08:54:43;18.10;;;11.30;;
16766;SDS011;8501;49.926;8.404;2024-02-15T08:57:09;17.17;;;12.27;;
16766;SDS011;8501;49.926;8.404;2024-02-15T08:59:36;14.57;;;11.80;;
16766;SDS011;8501;49.926;8.404;2024-02-15T09:02:02;18.50;;;11.60;;
16766;SDS011;8501;49.926;8.404;2024-02-15T09:04:30;16.87;;;12.13;;
16766;SDS011;8501;49.926;8.404;2024-02-15T09:06:56;15.47;;;11.57;;
16766;SDS011;8501;49.926;8.404;2024-02-15T09:09:22;20.27;;;11.17;;
16766;SDS011;8501;49.926;8.404;2024-02-15T09:11:51;16.03;;;11.17;;
16766;SDS011;8501;49.926;8.404;2024-02-15T09:14:16;17.43;;;11.63;;
16766;SDS011;8501;49.926;8.404;2024-02-15T09:16:42;17.30;;;11.50;;
16766;SDS011;8501;49.926;8.404;2024-02-15T09:19:08;20.00;;;11.73;;
16766;SDS011;8501;49.926;8.404;2024-02-15T09:21:33;18.07;;;12.17;;
16766;SDS011;8501;49.926;8.404;2024-02-15T09:23:59;17.27;;;11.73;;
16766;SDS011;8501;49.926;8.404;2024-02-15T09:26:25;17.83;;;11.60;;
16766;SDS011;8501;49.926;8.404;2024-02-15T09:28:52;17.60;;;11.90;;
16766;SDS011;8501;49.926;8.404;2024-02-15T09:31:18;18.20;;;11.30;;
16766;SDS011;8501;49.926;8.404;2024-02-15T09:33:44;17.00;;;11.13;;
16766;SDS011;8501;49.926;8.404;2024-02-15T09:36:10;15.77;;;10.97;;
16766;SDS011;8501;49.926;8.404;2024-02-15T09:38:37;17.67;;;11.40;;
16766;SDS011;8501;49.926;8.404;2024-02-15T09:41:03;18.30;;;11.37;;
16766;SDS011;8501;49.926;8.404;2024-02-15T09:43:32;18.90;;;11.60;;
16766;SDS011;8501;49.926;8.404;2024-02-15T09:45:58;17.93;;;10.87;;
16766;SDS011;8501;49.926;8.404;2024-02-15T09:48:24;18.00;;;11.00;;
16766;SDS011;8501;49.926;8.404;2024-02-15T09:50:52;17.67;;;9.87;;
16766;SDS011;8501;49.926;8.404;2024-02-15T09:53:20;15.00;;;10.13;;
16766;SDS011;8501;49.926;8.404;2024-02-15T09:55:50;16.17;;;9.70;;
16766;SDS011;8501;49.926;8.404;2024-02-15T09:58:19;14.97;;;10.10;;
16766;SDS011;8501;49.926;8.404;2024-02-15T10:00:44;18.37;;;10.60;;
16766;SDS011;8501;49.926;8.404;2024-02-15T10:03:11;16.03;;;10.57;;
16766;SDS011;8501;49.926;8.404;2024-02-15T10:05:43;14.53;;;10.07;;
16766;SDS011;8501;49.926;8.404;2024-02-15T10:08:09;13.13;;;9.80;;
16766;SDS011;8501;49.926;8.404;2024-02-15T10:10:36;17.77;;;10.10;;
16766;SDS011;8501;49.926;8.404;2024-02-15T10:13:02;14.97;;;9.57;;
16766;SDS011;8501;49.926;8.404;2024-02-15T10:15:37;14.47;;;9.13;;
16766;SDS011;8501;49.926;8.404;2024-02-15T10:18:04;15.57;;;9.00;;
16766;SDS011;8501;49.926;8.404;2024-02-15T10:20:36;13.37;;;8.67;;
16766;SDS011;8501;49.926;8.404;2024-02-15T10:23:12;13.17;;;8.70;;
16766;SDS011;8501;49.926;8.404;2024-02-15T10:25:42;12.23;;;8.30;;
16766;SDS011;8501;49.926;8.404;2024-02-15T10:28:10;12.50;;;8.70;;
16766;SDS011;8501;49.926;8.404;2024-02-15T10:30:37;12.97;;;8.47;;
16766;SDS011;8501;49.926;8.404;2024-02-15T10:33:04;12.87;;;9.00;;
16766;SDS011;8501;49.926;8.404;2024-02-15T10:35:34;15.27;;;8.33;;
16766;SDS011;8501;49.926;8.404;2024-02-15T10:38:08;12.27;;;7.97;;
16766;SDS011;8501;49.926;8.404;2024-02-15T10:40:35;12.80;;;8.10;;
16766;SDS011;8501;49.926;8.404;2024-02-15T10:43:05;9.13;;;7.20;;
16766;SDS011;8501;49.926;8.404;2024-02-15T10:45:31;14.80;;;7.70;;
16766;SDS011;8501;49.926;8.404;2024-02-15T10:47:58;12.73;;;7.50;;
16766;SDS011;8501;49.926;8.404;2024-02-15T10:50:24;11.23;;;7.70;;
16766;SDS011;8501;49.926;8.404;2024-02-15T10:52:54;10.40;;;7.40;;
16766;SDS011;8501;49.926;8.404;2024-02-15T10:58:00;10.47;;;6.77;;
16766;SDS011;8501;49.926;8.404;2024-02-15T11:00:35;13.33;;;7.00;;
16766;SDS011;8501;49.926;8.404;2024-02-15T11:03:05;11.53;;;7.00;;
16766;SDS011;8501;49.926;8.404;2024-02-15T11:05:36;10.40;;;7.03;;
16766;SDS011;8501;49.926;8.404;2024-02-15T11:08:05;10.57;;;7.03;;
16766;SDS011;8501;49.926;8.404;2024-02-15T11:10:33;11.63;;;7.13;;
16766;SDS011;8501;49.926;8.404;2024-02-15T11:13:00;12.00;;;6.27;;
16766;SDS011;8501;49.926;8.404;2024-02-15T11:15:43;8.40;;;5.93;;
16766;SDS011;8501;49.926;8.404;2024-02-15T11:18:19;10.87;;;6.23;;
16766;SDS011;8501;49.926;8.404;2024-02-15T11:21:10;9.13;;;5.80;;
16766;SDS011;8501;49.926;8.404;2024-02-15T11:23:37;8.07;;;5.37;;
16766;SDS011;8501;49.926;8.404;2024-02-15T11:26:03;10.17;;;5.60;;
16766;SDS011;8501;49.926;8.404;2024-02-15T11:30:56;7.23;;;5.27;;
16766;SDS011;8501;49.926;8.404;2024-02-15T11:33:30;8.97;;;5.70;;
16766;SDS011;8501;49.926;8.404;2024-02-15T11:36:07;9.60;;;5.73;;
16766;SDS011;8501;49.926;8.404;2024-02-15T11:38:36;9.43;;;5.53;;
16766;SDS011;8501;49.926;8.404;2024-02-15T11:41:09;6.97;;;5.47;;
16766;SDS011;8501;49.926;8.404;2024-02-15T11:46:21;8.47;;;5.50;;
16766;SDS011;8501;49.926;8.404;2024-02-15T11:48:49;10.90;;;5.27;;
16766;SDS011;8501;49.926;8.404;2024-02-15T11:53:58;10.67;;;4.63;;
16766;SDS011;8501;49.926;8.404;2024-02-15T11:59:13;9.97;;;5.10;;
16766;SDS011;8501;49.926;8.404;2024-02-15T12:01:54;9.43;;;5.53;;
16766;SDS011;8501;49.926;8.404;2024-02-15T12:04:39;8.53;;;5.00;;
16766;SDS011;8501;49.926;8.404;2024-02-15T12:07:24;8.77;;;4.93;;
16766;SDS011;8501;49.926;8.404;2024-02-15T12:10:15;6.67;;;4.37;;
16766;SDS011;8501;49.926;8.404;2024-02-15T12:13:01;8.43;;;4.50;;
16766;SDS011;8501;49.926;8.404;2024-02-15T12:15:58;6.10;;;4.07;;
16766;SDS011;8501;49.926;8.404;2024-02-15T12:18:43;8.43;;;5.47;;
16766;SDS011;8501;49.926;8.404;2024-02-15T12:21:11;7.33;;;4.50;;
16766;SDS011;8501;49.926;8.404;2024-02-15T12:23:40;8.13;;;4.10;;
16766;SDS011;8501;49.926;8.404;2024-02-15T12:26:06;7.13;;;3.90;;
16766;SDS011;8501;49.926;8.404;2024-02-15T12:28:33;7.90;;;4.33;;
16766;SDS011;8501;49.926;8.404;2024-02-15T12:31:00;7.03;;;4.23;;
16766;SDS011;8501;49.926;8.404;2024-02-15T12:33:26;8.00;;;4.40;;
16766;SDS011;8501;49.926;8.404;2024-02-15T12:35:52;7.43;;;3.70;;
16766;SDS011;8501;49.926;8.404;2024-02-15T12:38:31;8.30;;;4.23;;
16766;SDS011;8501;49.926;8.404;2024-02-15T12:40:59;4.87;;;3.67;;
16766;SDS011;8501;49.926;8.404;2024-02-15T12:43:27;6.90;;;3.63;;
16766;SDS011;8501;49.926;8.404;2024-02-15T12:45:53;5.77;;;3.40;;
16766;SDS011;8501;49.926;8.404;2024-02-15T12:48:19;4.90;;;3.40;;
16766;SDS011;8501;49.926;8.404;2024-02-15T12:50:45;6.70;;;3.67;;
16766;SDS011;8501;49.926;8.404;2024-02-15T12:53:11;4.97;;;3.43;;
16766;SDS011;8501;49.926;8.404;2024-02-15T12:55:37;5.47;;;3.50;;
16766;SDS011;8501;49.926;8.404;2024-02-15T12:58:05;6.00;;;3.47;;
16766;SDS011;8501;49.926;8.404;2024-02-15T13:00:35;5.67;;;3.50;;
16766;SDS011;8501;49.926;8.404;2024-02-15T13:03:04;5.67;;;3.30;;
16766;SDS011;8501;49.926;8.404;2024-02-15T13:05:33;5.83;;;3.50;;
16766;SDS011;8501;49.926;8.404;2024-02-15T13:08:01;9.53;;;3.80;;
16766;SDS011;8501;49.926;8.404;2024-02-15T13:10:27;10.17;;;4.47;;
16766;SDS011;8501;49.926;8.404;2024-02-15T13:12:54;7.60;;;3.60;;
16766;SDS011;8501;49.926;8.404;2024-02-15T13:15:21;5.15;;;3.22;;
16766;SDS011;8501;49.926;8.404;2024-02-15T13:17:52;5.67;;;3.30;;
16766;SDS011;8501;49.926;8.404;2024-02-15T13:20:19;7.20;;;3.10;;
16766;SDS011;8501;49.926;8.404;2024-02-15T13:22:52;4.95;;;2.83;;
16766;SDS011;8501;49.926;8.404;2024-02-15T13:25:19;5.30;;;3.43;;
16766;SDS011;8501;49.926;8.404;2024-02-15T13:27:46;6.03;;;3.13;;
16766;SDS011;8501;49.926;8.404;2024-02-15T13:30:12;6.33;;;3.17;;
16766;SDS011;8501;49.926;8.404;2024-02-15T13:32:41;4.50;;;3.23;;
16766;SDS011;8501;49.926;8.404;2024-02-15T13:35:07;6.50;;;3.23;;
16766;SDS011;8501;49.926;8.404;2024-02-15T13:37:42;6.57;;;3.27;;
16766;SDS011;8501;49.926;8.404;2024-02-15T13:40:11;4.07;;;2.93;;
16766;SDS011;8501;49.926;8.404;2024-02-15T13:42:44;5.87;;;3.30;;
16766;SDS011;8501;49.926;8.404;2024-02-15T13:45:15;6.77;;;3.20;;
16766;SDS011;8501;49.926;8.404;2024-02-15T13:47:44;6.80;;;3.37;;
16766;SDS011;8501;49.926;8.404;2024-02-15T13:50:12;6.60;;;3.30;;
16766;SDS011;8501;49.926;8.404;2024-02-15T13:52:40;10.77;;;3.33;;
16766;SDS011;8501;49.926;8.404;2024-02-15T13:55:08;6.93;;;3.60;;
16766;SDS011;8501;49.926;8.404;2024-02-15T13:57:36;7.20;;;3.50;;
16766;SDS011;8501;49.926;8.404;2024-02-15T14:00:02;4.70;;;3.08;;
16766;SDS011;8501;49.926;8.404;2024-02-15T14:02:30;10.27;;;3.72;;
16766;SDS011;8501;49.926;8.404;2024-02-15T14:04:56;5.30;;;3.40;;
16766;SDS011;8501;49.926;8.404;2024-02-15T14:07:22;8.90;;;3.65;;
16766;SDS011;8501;49.926;8.404;2024-02-15T14:09:48;6.87;;;3.40;;
16766;SDS011;8501;49.926;8.404;2024-02-15T14:12:13;6.43;;;3.13;;
16766;SDS011;8501;49.926;8.404;2024-02-15T14:14:42;8.03;;;3.63;;
16766;SDS011;8501;49.926;8.404;2024-02-15T14:17:08;7.40;;;3.63;;
16766;SDS011;8501;49.926;8.404;2024-02-15T14:19:34;7.90;;;4.03;;
16766;SDS011;8501;49.926;8.404;2024-02-15T14:21:59;8.60;;;3.90;;
16766;SDS011;8501;49.926;8.404;2024-02-15T14:24:26;5.80;;;3.93;;
16766;SDS011;8501;49.926;8.404;2024-02-15T14:26:52;4.57;;;3.90;;
16766;SDS011;8501;49.926;8.404;2024-02-15T14:29:17;6.50;;;4.17;;
16766;SDS011;8501;49.926;8.404;2024-02-15T14:31:47;10.10;;;4.18;;
16766;SDS011;8501;49.926;8.404;2024-02-15T14:34:44;6.70;;;3.90;;
16766;SDS011;8501;49.926;8.404;2024-02-15T14:37:09;6.07;;;3.92;;
16766;SDS011;8501;49.926;8.404;2024-02-15T14:39:35;5.85;;;4.20;;
16766;SDS011;8501;49.926;8.404;2024-02-15T14:42:00;8.27;;;4.22;;
16766;SDS011;8501;49.926;8.404;2024-02-15T14:44:26;5.90;;;4.18;;
16766;SDS011;8501;49.926;8.404;2024-02-15T14:46:51;7.40;;;3.75;;
16766;SDS011;8501;49.926;8.404;2024-02-15T14:49:18;7.97;;;3.45;;
16766;SDS011;8501;49.926;8.404;2024-02-15T14:51:44;9.10;;;3.90;;
16766;SDS011;8501;49.926;8.404;2024-02-15T14:54:09;9.63;;;4.77;;
16766;SDS011;8501;49.926;8.404;2024-02-15T14:56:35;7.00;;;4.87;;
16766;SDS011;8501;49.926;8.404;2024-02-15T14:59:01;9.23;;;4.60;;
16766;SDS011;8501;49.926;8.404;2024-02-15T15:01:27;6.40;;;4.27;;